sensor_id;sensor_type;location;lat;lon;timestamp;pressure;altitude;pressure_sealevel;temperature;humidity
73205;BME280;61413;-27.702;153.216;2023-12-04T00:01:17;101485.77;;;32.59;27.55
73205;BME280;61413;-27.702;153.216;2023-12-04T00:03:45;101487.50;;;33.54;26.51
73205;BME280;61413;-27.702;153.216;2023-12-04T00:06:13;101486.10;;;36.25;24.45
73205;BME280;61413;-27.702;153.216;2023-12-04T00:08:40;101490.20;;;35.81;23.91
73205;BME280;61413;-27.702;153.216;2023-12-04T00:11:08;101484.56;;;37.04;23.36
73205;BME280;61413;-27.702;153.216;2023-12-04T00:13:35;101480.73;;;36.33;23.47
73205;BME280;61413;-27.702;153.216;2023-12-04T00:16:02;101484.44;;;33.79;24.91
73205;BME280;61413;-27.702;153.216;2023-12-04T00:18:29;101481.09;;;31.74;26.57
73205;BME280;61413;-27.702;153.216;2023-12-04T00:20:56;101481.54;;;30.83;27.83
73205;BME280;61413;-27.702;153.216;2023-12-04T00:23:24;101480.41;;;33.08;27.07
73205;BME280;61413;-27.702;153.216;2023-12-04T00:25:51;101479.93;;;35.87;24.55
73205;BME280;61413;-27.702;153.216;2023-12-04T00:28:19;101470.76;;;36.72;23.33
73205;BME280;61413;-27.702;153.216;2023-12-04T00:32:09;101465.75;;;33.21;25.58
73205;BME280;61413;-27.702;153.216;2023-12-04T00:34:37;101465.73;;;35.05;24.77
73205;BME280;61413;-27.702;153.216;2023-12-04T00:37:04;101463.16;;;35.52;24.00
73205;BME280;61413;-27.702;153.216;2023-12-04T00:39:32;101458.99;;;33.48;24.98
73205;BME280;61413;-27.702;153.216;2023-12-04T00:41:59;101462.64;;;35.76;23.99
73205;BME280;61413;-27.702;153.216;2023-12-04T00:44:26;101450.66;;;32.87;25.63
73205;BME280;61413;-27.702;153.216;2023-12-04T00:46:53;101465.12;;;33.42;25.85
73205;BME280;61413;-27.702;153.216;2023-12-04T00:49:21;101462.64;;;38.60;22.42
73205;BME280;61413;-27.702;153.216;2023-12-04T00:51:48;101468.79;;;37.75;21.51
73205;BME280;61413;-27.702;153.216;2023-12-04T00:54:16;101454.75;;;33.92;23.61
73205;BME280;61413;-27.702;153.216;2023-12-04T00:59:41;101457.04;;;39.51;20.54
73205;BME280;61413;-27.702;153.216;2023-12-04T01:02:09;101457.84;;;40.48;19.13
73205;BME280;61413;-27.702;153.216;2023-12-04T01:04:38;101447.42;;;41.09;17.84
73205;BME280;61413;-27.702;153.216;2023-12-04T01:07:02;101441.58;;;41.67;17.19
73205;BME280;61413;-27.702;153.216;2023-12-04T01:09:30;101441.96;;;42.60;16.62
73205;BME280;61413;-27.702;153.216;2023-12-04T01:11:57;101436.40;;;42.59;16.51
73205;BME280;61413;-27.702;153.216;2023-12-04T01:14:25;101432.97;;;38.55;17.34
73205;BME280;61413;-27.702;153.216;2023-12-04T01:16:52;101430.51;;;35.71;19.68
73205;BME280;61413;-27.702;153.216;2023-12-04T01:19:19;101427.73;;;33.43;21.75
73205;BME280;61413;-27.702;153.216;2023-12-04T01:21:46;101425.40;;;32.94;22.89
73205;BME280;61413;-27.702;153.216;2023-12-04T01:24:14;101415.53;;;32.85;23.58
73205;BME280;61413;-27.702;153.216;2023-12-04T01:29:17;101411.17;;;34.12;24.12
73205;BME280;61413;-27.702;153.216;2023-12-04T01:31:44;101408.93;;;33.82;24.18
73205;BME280;61413;-27.702;153.216;2023-12-04T01:34:12;101406.38;;;32.75;25.37
73205;BME280;61413;-27.702;153.216;2023-12-04T01:36:42;101395.52;;;32.55;25.30
73205;BME280;61413;-27.702;153.216;2023-12-04T01:39:05;101396.58;;;32.82;25.75
73205;BME280;61413;-27.702;153.216;2023-12-04T01:42:49;101393.85;;;32.23;26.05
73205;BME280;61413;-27.702;153.216;2023-12-04T01:45:16;101391.57;;;32.34;26.07
73205;BME280;61413;-27.702;153.216;2023-12-04T01:47:44;101385.14;;;32.35;26.19
73205;BME280;61413;-27.702;153.216;2023-12-04T01:52:15;101374.15;;;32.31;26.43
73205;BME280;61413;-27.702;153.216;2023-12-04T01:54:47;101374.03;;;32.17;26.19
73205;BME280;61413;-27.702;153.216;2023-12-04T01:59:43;101366.44;;;32.58;26.16
73205;BME280;61413;-27.702;153.216;2023-12-04T02:02:11;101367.53;;;32.29;26.53
73205;BME280;61413;-27.702;153.216;2023-12-04T02:04:40;101364.89;;;31.97;26.09
73205;BME280;61413;-27.702;153.216;2023-12-04T02:07:07;101359.47;;;32.34;26.42
73205;BME280;61413;-27.702;153.216;2023-12-04T02:09:34;101356.85;;;31.99;26.38
73205;BME280;61413;-27.702;153.216;2023-12-04T02:12:01;101356.70;;;32.28;26.55
73205;BME280;61413;-27.702;153.216;2023-12-04T02:14:29;101357.17;;;31.92;26.98
73205;BME280;61413;-27.702;153.216;2023-12-04T02:16:58;101358.83;;;32.21;27.16
73205;BME280;61413;-27.702;153.216;2023-12-04T02:19:22;101354.33;;;32.13;27.33
73205;BME280;61413;-27.702;153.216;2023-12-04T02:21:50;101353.33;;;32.23;26.72
73205;BME280;61413;-27.702;153.216;2023-12-04T02:24:17;101353.57;;;32.05;27.18
73205;BME280;61413;-27.702;153.216;2023-12-04T02:26:53;101347.32;;;31.32;27.07
73205;BME280;61413;-27.702;153.216;2023-12-04T02:29:14;101348.81;;;31.28;27.35
73205;BME280;61413;-27.702;153.216;2023-12-04T02:32:44;101338.03;;;31.28;27.67
73205;BME280;61413;-27.702;153.216;2023-12-04T02:35:10;101340.11;;;31.45;27.61
73205;BME280;61413;-27.702;153.216;2023-12-04T02:37:35;101340.42;;;31.09;27.40
73205;BME280;61413;-27.702;153.216;2023-12-04T02:40:02;101334.02;;;31.07;27.23
73205;BME280;61413;-27.702;153.216;2023-12-04T02:43:16;101335.51;;;30.93;27.47
73205;BME280;61413;-27.702;153.216;2023-12-04T02:45:44;101332.72;;;31.30;27.73
73205;BME280;61413;-27.702;153.216;2023-12-04T02:48:11;101334.07;;;31.06;27.70
73205;BME280;61413;-27.702;153.216;2023-12-04T02:50:39;101328.54;;;31.38;27.51
73205;BME280;61413;-27.702;153.216;2023-12-04T02:53:09;101329.85;;;31.42;27.55
73205;BME280;61413;-27.702;153.216;2023-12-04T02:55:32;101329.40;;;31.34;27.49
73205;BME280;61413;-27.702;153.216;2023-12-04T02:58:00;101336.83;;;31.20;27.49
73205;BME280;61413;-27.702;153.216;2023-12-04T03:00:27;101329.81;;;31.33;27.69
73205;BME280;61413;-27.702;153.216;2023-12-04T03:02:55;101323.99;;;31.50;27.20
73205;BME280;61413;-27.702;153.216;2023-12-04T03:05:23;101330.51;;;31.65;26.84
73205;BME280;61413;-27.702;153.216;2023-12-04T03:07:51;101338.60;;;31.27;26.91
73205;BME280;61413;-27.702;153.216;2023-12-04T03:10:18;101327.71;;;31.36;26.88
73205;BME280;61413;-27.702;153.216;2023-12-04T03:14:56;101323.02;;;30.94;27.69
73205;BME280;61413;-27.702;153.216;2023-12-04T03:17:23;101321.99;;;31.43;27.35
73205;BME280;61413;-27.702;153.216;2023-12-04T03:19:51;101333.21;;;31.13;27.29
73205;BME280;61413;-27.702;153.216;2023-12-04T03:22:19;101327.82;;;30.51;27.31
73205;BME280;61413;-27.702;153.216;2023-12-04T03:24:47;101323.70;;;30.49;27.02
73205;BME280;61413;-27.702;153.216;2023-12-04T03:27:15;101329.86;;;30.83;27.37
73205;BME280;61413;-27.702;153.216;2023-12-04T03:29:42;101325.48;;;30.07;27.89
73205;BME280;61413;-27.702;153.216;2023-12-04T03:32:10;101328.76;;;30.21;28.45
73205;BME280;61413;-27.702;153.216;2023-12-04T03:34:37;101325.39;;;30.39;28.97
73205;BME280;61413;-27.702;153.216;2023-12-04T03:37:05;101327.78;;;30.31;29.57
73205;BME280;61413;-27.702;153.216;2023-12-04T03:39:34;101315.03;;;30.59;29.47
73205;BME280;61413;-27.702;153.216;2023-12-04T03:41:58;101311.12;;;30.94;29.20
73205;BME280;61413;-27.702;153.216;2023-12-04T03:44:25;101313.05;;;30.35;29.30
73205;BME280;61413;-27.702;153.216;2023-12-04T03:49:36;101309.94;;;30.43;28.93
73205;BME280;61413;-27.702;153.216;2023-12-04T03:52:03;101307.21;;;30.28;29.25
73205;BME280;61413;-27.702;153.216;2023-12-04T03:54:31;101313.20;;;30.07;29.28
73205;BME280;61413;-27.702;153.216;2023-12-04T03:56:58;101320.67;;;29.91;29.39
73205;BME280;61413;-27.702;153.216;2023-12-04T03:59:26;101297.95;;;30.22;29.50
73205;BME280;61413;-27.702;153.216;2023-12-04T04:01:53;101301.27;;;30.27;29.68
73205;BME280;61413;-27.702;153.216;2023-12-04T04:04:30;101288.91;;;30.05;29.27
73205;BME280;61413;-27.702;153.216;2023-12-04T04:06:49;101283.23;;;30.09;28.86
73205;BME280;61413;-27.702;153.216;2023-12-04T04:09:17;101285.73;;;30.24;29.17
73205;BME280;61413;-27.702;153.216;2023-12-04T04:13:20;101280.67;;;30.26;29.23
73205;BME280;61413;-27.702;153.216;2023-12-04T04:15:47;101275.96;;;30.24;29.40
73205;BME280;61413;-27.702;153.216;2023-12-04T04:18:16;101276.57;;;30.57;29.21
73205;BME280;61413;-27.702;153.216;2023-12-04T04:20:40;101278.38;;;30.60;29.13
73205;BME280;61413;-27.702;153.216;2023-12-04T04:23:07;101277.67;;;30.07;28.99
73205;BME280;61413;-27.702;153.216;2023-12-04T04:25:34;101270.14;;;30.12;29.75
73205;BME280;61413;-27.702;153.216;2023-12-04T04:28:02;101270.45;;;29.88;30.14
73205;BME280;61413;-27.702;153.216;2023-12-04T04:30:30;101268.87;;;30.09;29.80
73205;BME280;61413;-27.702;153.216;2023-12-04T04:32:57;101272.77;;;30.17;29.78
73205;BME280;61413;-27.702;153.216;2023-12-04T04:35:24;101282.09;;;30.40;30.52
73205;BME280;61413;-27.702;153.216;2023-12-04T04:37:52;101280.25;;;29.74;31.28
73205;BME280;61413;-27.702;153.216;2023-12-04T04:40:19;101281.19;;;29.54;31.38
73205;BME280;61413;-27.702;153.216;2023-12-04T04:42:47;101274.12;;;30.07;31.19
73205;BME280;61413;-27.702;153.216;2023-12-04T04:45:14;101281.06;;;30.12;29.80
73205;BME280;61413;-27.702;153.216;2023-12-04T04:47:41;101268.45;;;29.94;30.03
73205;BME280;61413;-27.702;153.216;2023-12-04T04:50:07;101275.72;;;29.42;30.88
73205;BME280;61413;-27.702;153.216;2023-12-04T04:52:34;101268.12;;;29.62;31.02
73205;BME280;61413;-27.702;153.216;2023-12-04T04:55:02;101269.47;;;29.59;31.26
73205;BME280;61413;-27.702;153.216;2023-12-04T04:57:27;101263.95;;;29.57;30.91
73205;BME280;61413;-27.702;153.216;2023-12-04T04:59:55;101262.02;;;29.43;31.32
73205;BME280;61413;-27.702;153.216;2023-12-04T05:02:23;101253.50;;;29.25;31.01
73205;BME280;61413;-27.702;153.216;2023-12-04T05:06:14;101272.60;;;28.77;32.11
73205;BME280;61413;-27.702;153.216;2023-12-04T05:08:41;101269.12;;;28.52;32.60
73205;BME280;61413;-27.702;153.216;2023-12-04T05:11:09;101275.67;;;28.50;33.33
73205;BME280;61413;-27.702;153.216;2023-12-04T05:13:36;101279.84;;;28.62;33.55
73205;BME280;61413;-27.702;153.216;2023-12-04T05:16:04;101272.35;;;29.05;33.37
73205;BME280;61413;-27.702;153.216;2023-12-04T05:18:31;101267.77;;;29.02;33.27
73205;BME280;61413;-27.702;153.216;2023-12-04T05:20:58;101271.78;;;28.82;33.12
73205;BME280;61413;-27.702;153.216;2023-12-04T05:23:26;101272.53;;;28.89;32.65
73205;BME280;61413;-27.702;153.216;2023-12-04T05:25:53;101279.16;;;28.34;33.26
73205;BME280;61413;-27.702;153.216;2023-12-04T05:28:20;101268.01;;;28.00;33.72
73205;BME280;61413;-27.702;153.216;2023-12-04T05:33:45;101270.97;;;27.91;34.74
73205;BME280;61413;-27.702;153.216;2023-12-04T05:36:13;101272.39;;;27.92;34.84
73205;BME280;61413;-27.702;153.216;2023-12-04T05:38:40;101274.16;;;27.84;35.16
73205;BME280;61413;-27.702;153.216;2023-12-04T05:43:11;101287.57;;;28.22;34.88
73205;BME280;61413;-27.702;153.216;2023-12-04T05:45:39;101296.10;;;27.95;34.78
73205;BME280;61413;-27.702;153.216;2023-12-04T05:48:06;101298.68;;;28.14;35.19
73205;BME280;61413;-27.702;153.216;2023-12-04T05:50:34;101301.77;;;27.64;35.32
73205;BME280;61413;-27.702;153.216;2023-12-04T05:53:01;101295.34;;;27.74;35.61
73205;BME280;61413;-27.702;153.216;2023-12-04T05:55:28;101309.09;;;27.62;35.61
73205;BME280;61413;-27.702;153.216;2023-12-04T05:57:55;101305.61;;;27.56;35.92
73205;BME280;61413;-27.702;153.216;2023-12-04T06:00:23;101314.03;;;27.74;35.86
73205;BME280;61413;-27.702;153.216;2023-12-04T06:05:40;101325.31;;;27.22;36.40
73205;BME280;61413;-27.702;153.216;2023-12-04T06:08:08;101324.87;;;26.97;35.83
73205;BME280;61413;-27.702;153.216;2023-12-04T06:10:35;101322.36;;;26.94;35.67
73205;BME280;61413;-27.702;153.216;2023-12-04T06:13:03;101325.85;;;27.10;35.98
73205;BME280;61413;-27.702;153.216;2023-12-04T06:15:31;101322.75;;;27.53;35.85
73205;BME280;61413;-27.702;153.216;2023-12-04T06:17:59;101324.32;;;27.43;35.91
73205;BME280;61413;-27.702;153.216;2023-12-04T06:20:26;101314.86;;;27.80;35.77
73205;BME280;61413;-27.702;153.216;2023-12-04T06:22:53;101305.65;;;27.80;35.76
73205;BME280;61413;-27.702;153.216;2023-12-04T06:25:21;101299.02;;;28.24;35.74
73205;BME280;61413;-27.702;153.216;2023-12-04T06:27:49;101301.07;;;27.92;35.64
73205;BME280;61413;-27.702;153.216;2023-12-04T06:30:17;101311.46;;;27.68;35.65
73205;BME280;61413;-27.702;153.216;2023-12-04T06:32:44;101318.45;;;27.27;36.57
73205;BME280;61413;-27.702;153.216;2023-12-04T06:35:13;101322.85;;;26.81;37.41
73205;BME280;61413;-27.702;153.216;2023-12-04T06:37:40;101328.50;;;26.64;38.14
73205;BME280;61413;-27.702;153.216;2023-12-04T06:40:04;101332.39;;;26.34;38.62
73205;BME280;61413;-27.702;153.216;2023-12-04T06:42:32;101331.66;;;26.08;38.93
73205;BME280;61413;-27.702;153.216;2023-12-04T06:45:00;101330.90;;;25.83;39.15
73205;BME280;61413;-27.702;153.216;2023-12-04T06:47:27;101329.69;;;26.19;38.93
73205;BME280;61413;-27.702;153.216;2023-12-04T06:49:53;101331.07;;;26.57;38.54
73205;BME280;61413;-27.702;153.216;2023-12-04T06:52:20;101328.21;;;26.28;38.28
73205;BME280;61413;-27.702;153.216;2023-12-04T06:54:47;101335.86;;;26.60;38.31
73205;BME280;61413;-27.702;153.216;2023-12-04T06:57:15;101341.85;;;26.77;38.22
73205;BME280;61413;-27.702;153.216;2023-12-04T07:00:41;101351.26;;;26.30;38.12
73205;BME280;61413;-27.702;153.216;2023-12-04T07:03:08;101359.72;;;26.19;37.96
73205;BME280;61413;-27.702;153.216;2023-12-04T07:05:35;101365.16;;;26.29;37.93
73205;BME280;61413;-27.702;153.216;2023-12-04T07:08:03;101375.37;;;25.96;38.20
73205;BME280;61413;-27.702;153.216;2023-12-04T07:10:30;101372.39;;;25.99;38.32
73205;BME280;61413;-27.702;153.216;2023-12-04T07:12:58;101366.53;;;26.75;38.05
73205;BME280;61413;-27.702;153.216;2023-12-04T07:15:25;101366.49;;;26.92;37.80
73205;BME280;61413;-27.702;153.216;2023-12-04T07:17:52;101375.88;;;26.64;37.99
73205;BME280;61413;-27.702;153.216;2023-12-04T07:20:20;101376.96;;;25.83;38.58
73205;BME280;61413;-27.702;153.216;2023-12-04T07:22:47;101375.40;;;26.33;38.50
73205;BME280;61413;-27.702;153.216;2023-12-04T07:25:16;101383.95;;;26.34;38.85
73205;BME280;61413;-27.702;153.216;2023-12-04T07:27:43;101385.20;;;26.67;38.75
73205;BME280;61413;-27.702;153.216;2023-12-04T07:30:10;101395.73;;;25.94;39.05
73205;BME280;61413;-27.702;153.216;2023-12-04T07:32:38;101404.36;;;26.08;38.70
73205;BME280;61413;-27.702;153.216;2023-12-04T07:35:06;101402.97;;;26.15;38.92
73205;BME280;61413;-27.702;153.216;2023-12-04T07:38:24;101398.49;;;25.91;39.25
73205;BME280;61413;-27.702;153.216;2023-12-04T07:40:52;101392.41;;;25.54;39.46
73205;BME280;61413;-27.702;153.216;2023-12-04T07:43:19;101385.01;;;25.54;39.42
73205;BME280;61413;-27.702;153.216;2023-12-04T07:46:52;101397.58;;;25.21;39.64
73205;BME280;61413;-27.702;153.216;2023-12-04T07:49:19;101402.49;;;25.08;39.51
73205;BME280;61413;-27.702;153.216;2023-12-04T07:51:47;101408.19;;;24.87;39.74
73205;BME280;61413;-27.702;153.216;2023-12-04T07:54:14;101411.80;;;24.74;39.93
73205;BME280;61413;-27.702;153.216;2023-12-04T07:56:41;101418.65;;;24.80;40.10
73205;BME280;61413;-27.702;153.216;2023-12-04T07:59:08;101425.26;;;24.52;40.08
73205;BME280;61413;-27.702;153.216;2023-12-04T08:01:36;101434.22;;;25.08;39.99
73205;BME280;61413;-27.702;153.216;2023-12-04T08:04:04;101445.97;;;24.62;40.14
73205;BME280;61413;-27.702;153.216;2023-12-04T08:06:31;101456.26;;;24.81;40.10
73205;BME280;61413;-27.702;153.216;2023-12-04T08:08:58;101462.58;;;24.40;39.98
73205;BME280;61413;-27.702;153.216;2023-12-04T08:11:25;101468.19;;;24.55;39.97
73205;BME280;61413;-27.702;153.216;2023-12-04T08:13:52;101468.09;;;24.51;40.03
73205;BME280;61413;-27.702;153.216;2023-12-04T08:16:19;101470.30;;;24.82;39.93
73205;BME280;61413;-27.702;153.216;2023-12-04T08:18:47;101476.61;;;24.55;40.01
73205;BME280;61413;-27.702;153.216;2023-12-04T08:21:14;101472.18;;;24.97;40.00
73205;BME280;61413;-27.702;153.216;2023-12-04T08:23:42;101471.65;;;24.50;40.21
73205;BME280;61413;-27.702;153.216;2023-12-04T08:26:09;101475.73;;;24.60;40.47
73205;BME280;61413;-27.702;153.216;2023-12-04T08:29:35;101481.13;;;24.66;40.70
73205;BME280;61413;-27.702;153.216;2023-12-04T08:32:17;101492.44;;;24.48;40.83
73205;BME280;61413;-27.702;153.216;2023-12-04T08:34:27;101494.56;;;24.40;40.87
73205;BME280;61413;-27.702;153.216;2023-12-04T08:39:12;101498.28;;;24.81;40.88
73205;BME280;61413;-27.702;153.216;2023-12-04T08:41:39;101506.07;;;25.30;40.80
73205;BME280;61413;-27.702;153.216;2023-12-04T08:44:06;101511.91;;;24.95;40.58
73205;BME280;61413;-27.702;153.216;2023-12-04T08:46:34;101514.29;;;25.50;40.18
73205;BME280;61413;-27.702;153.216;2023-12-04T08:49:01;101513.61;;;25.26;39.81
73205;BME280;61413;-27.702;153.216;2023-12-04T08:51:28;101523.82;;;25.56;39.61
73205;BME280;61413;-27.702;153.216;2023-12-04T08:53:56;101518.58;;;25.76;39.18
73205;BME280;61413;-27.702;153.216;2023-12-04T08:56:23;101518.02;;;25.53;39.19
73205;BME280;61413;-27.702;153.216;2023-12-04T08:58:50;101515.81;;;25.23;39.11
73205;BME280;61413;-27.702;153.216;2023-12-04T09:01:17;101517.60;;;25.37;39.04
73205;BME280;61413;-27.702;153.216;2023-12-04T09:03:45;101520.27;;;25.24;39.12
73205;BME280;61413;-27.702;153.216;2023-12-04T09:06:13;101524.59;;;25.18;39.09
73205;BME280;61413;-27.702;153.216;2023-12-04T09:08:39;101531.27;;;24.93;39.12
73205;BME280;61413;-27.702;153.216;2023-12-04T09:11:07;101539.21;;;25.48;39.03
73205;BME280;61413;-27.702;153.216;2023-12-04T09:13:34;101549.97;;;25.38;39.01
73205;BME280;61413;-27.702;153.216;2023-12-04T09:16:01;101550.69;;;25.35;38.99
73205;BME280;61413;-27.702;153.216;2023-12-04T09:18:28;101543.98;;;25.36;38.85
73205;BME280;61413;-27.702;153.216;2023-12-04T09:20:55;101541.06;;;24.92;39.01
73205;BME280;61413;-27.702;153.216;2023-12-04T09:23:23;101539.85;;;24.89;39.06
73205;BME280;61413;-27.702;153.216;2023-12-04T09:25:51;101538.62;;;25.37;39.02
73205;BME280;61413;-27.702;153.216;2023-12-04T09:28:18;101531.55;;;25.36;39.00
73205;BME280;61413;-27.702;153.216;2023-12-04T09:30:45;101534.30;;;25.33;39.01
73205;BME280;61413;-27.702;153.216;2023-12-04T09:33:59;101544.35;;;25.09;39.11
73205;BME280;61413;-27.702;153.216;2023-12-04T09:36:26;101554.26;;;25.03;39.07
73205;BME280;61413;-27.702;153.216;2023-12-04T09:38:54;101563.79;;;25.38;38.93
73205;BME280;61413;-27.702;153.216;2023-12-04T09:41:22;101579.90;;;25.34;38.88
73205;BME280;61413;-27.702;153.216;2023-12-04T09:43:49;101591.90;;;25.05;38.85
73205;BME280;61413;-27.702;153.216;2023-12-04T09:46:17;101593.07;;;25.07;38.86
73205;BME280;61413;-27.702;153.216;2023-12-04T09:48:46;101595.32;;;24.93;38.92
73205;BME280;61413;-27.702;153.216;2023-12-04T09:51:13;101596.54;;;25.28;39.01
73205;BME280;61413;-27.702;153.216;2023-12-04T09:53:41;101603.16;;;25.18;39.09
73205;BME280;61413;-27.702;153.216;2023-12-04T09:56:09;101604.36;;;25.20;39.32
73205;BME280;61413;-27.702;153.216;2023-12-04T09:58:39;101606.38;;;24.80;39.66
73205;BME280;61413;-27.702;153.216;2023-12-04T10:01:03;101604.33;;;25.14;39.90
73205;BME280;61413;-27.702;153.216;2023-12-04T10:03:31;101599.57;;;24.69;40.17
73205;BME280;61413;-27.702;153.216;2023-12-04T10:05:58;101598.31;;;24.86;40.46
73205;BME280;61413;-27.702;153.216;2023-12-04T10:12:08;101608.87;;;24.72;41.48
73205;BME280;61413;-27.702;153.216;2023-12-04T10:16:35;101621.10;;;24.72;41.90
73205;BME280;61413;-27.702;153.216;2023-12-04T10:19:16;101625.88;;;24.58;41.91
73205;BME280;61413;-27.702;153.216;2023-12-04T10:21:34;101627.11;;;24.66;42.02
73205;BME280;61413;-27.702;153.216;2023-12-04T10:23:53;101623.47;;;24.37;42.30
73205;BME280;61413;-27.702;153.216;2023-12-04T10:26:21;101624.02;;;24.54;42.55
73205;BME280;61413;-27.702;153.216;2023-12-04T10:30:28;101621.38;;;23.99;43.36
73205;BME280;61413;-27.702;153.216;2023-12-04T10:33:01;101622.10;;;23.92;43.59
73205;BME280;61413;-27.702;153.216;2023-12-04T10:35:20;101623.35;;;23.97;43.65
73205;BME280;61413;-27.702;153.216;2023-12-04T10:37:47;101627.66;;;24.15;43.66
73205;BME280;61413;-27.702;153.216;2023-12-04T10:40:24;101628.72;;;24.11;43.62
73205;BME280;61413;-27.702;153.216;2023-12-04T10:42:40;101628.67;;;24.39;43.53
73205;BME280;61413;-27.702;153.216;2023-12-04T10:45:08;101630.16;;;24.32;43.34
73205;BME280;61413;-27.702;153.216;2023-12-04T10:48:18;101639.13;;;24.13;43.35
73205;BME280;61413;-27.702;153.216;2023-12-04T10:50:47;101645.57;;;24.38;43.09
73205;BME280;61413;-27.702;153.216;2023-12-04T10:53:16;101640.76;;;24.23;43.06
73205;BME280;61413;-27.702;153.216;2023-12-04T10:57:48;101638.35;;;24.40;43.19
73205;BME280;61413;-27.702;153.216;2023-12-04T11:00:14;101639.97;;;24.21;43.20
73205;BME280;61413;-27.702;153.216;2023-12-04T11:05:15;101650.01;;;24.27;43.44
73205;BME280;61413;-27.702;153.216;2023-12-04T11:07:40;101654.65;;;24.15;43.47
73205;BME280;61413;-27.702;153.216;2023-12-04T11:10:08;101656.87;;;24.14;43.37
73205;BME280;61413;-27.702;153.216;2023-12-04T11:12:34;101654.92;;;24.26;43.26
73205;BME280;61413;-27.702;153.216;2023-12-04T11:15:03;101654.09;;;24.31;43.20
73205;BME280;61413;-27.702;153.216;2023-12-04T11:17:29;101657.28;;;24.49;43.14
73205;BME280;61413;-27.702;153.216;2023-12-04T11:19:58;101660.61;;;24.41;43.14
73205;BME280;61413;-27.702;153.216;2023-12-04T11:22:23;101665.89;;;24.43;43.09
73205;BME280;61413;-27.702;153.216;2023-12-04T11:24:49;101671.21;;;24.11;43.06
73205;BME280;61413;-27.702;153.216;2023-12-04T11:27:16;101674.23;;;24.48;42.88
73205;BME280;61413;-27.702;153.216;2023-12-04T11:29:44;101677.85;;;24.44;42.83
73205;BME280;61413;-27.702;153.216;2023-12-04T11:32:15;101682.52;;;24.41;42.82
73205;BME280;61413;-27.702;153.216;2023-12-04T11:36:14;101690.16;;;24.37;42.93
73205;BME280;61413;-27.702;153.216;2023-12-04T11:38:43;101696.84;;;24.37;42.82
73205;BME280;61413;-27.702;153.216;2023-12-04T11:41:17;101699.31;;;24.44;42.70
73205;BME280;61413;-27.702;153.216;2023-12-04T11:43:33;101702.93;;;24.35;42.65
73205;BME280;61413;-27.702;153.216;2023-12-04T11:46:09;101705.99;;;24.40;42.56
73205;BME280;61413;-27.702;153.216;2023-12-04T11:48:29;101706.75;;;24.33;42.50
73205;BME280;61413;-27.702;153.216;2023-12-04T11:50:59;101705.65;;;24.01;42.45
73205;BME280;61413;-27.702;153.216;2023-12-04T11:53:22;101700.89;;;24.03;42.36
73205;BME280;61413;-27.702;153.216;2023-12-04T11:55:49;101698.26;;;24.18;42.31
73205;BME280;61413;-27.702;153.216;2023-12-04T11:58:18;101699.14;;;24.01;42.43
73205;BME280;61413;-27.702;153.216;2023-12-04T12:00:44;101704.12;;;24.13;42.38
73205;BME280;61413;-27.702;153.216;2023-12-04T12:03:14;101708.52;;;24.04;42.51
73205;BME280;61413;-27.702;153.216;2023-12-04T12:05:38;101712.91;;;23.90;42.63
73205;BME280;61413;-27.702;153.216;2023-12-04T12:08:07;101712.81;;;23.87;42.81
73205;BME280;61413;-27.702;153.216;2023-12-04T12:10:34;101713.03;;;23.64;43.17
73205;BME280;61413;-27.702;153.216;2023-12-04T12:13:01;101710.53;;;23.63;43.33
73205;BME280;61413;-27.702;153.216;2023-12-04T12:15:30;101712.02;;;23.94;43.43
73205;BME280;61413;-27.702;153.216;2023-12-04T12:17:57;101717.02;;;23.53;43.50
73205;BME280;61413;-27.702;153.216;2023-12-04T12:20:25;101715.87;;;23.67;43.50
73205;BME280;61413;-27.702;153.216;2023-12-04T12:22:53;101709.46;;;23.55;43.56
73205;BME280;61413;-27.702;153.216;2023-12-04T12:25:20;101704.96;;;23.66;43.59
73205;BME280;61413;-27.702;153.216;2023-12-04T12:30:31;101707.16;;;23.58;43.83
73205;BME280;61413;-27.702;153.216;2023-12-04T12:32:58;101708.74;;;23.51;43.78
73205;BME280;61413;-27.702;153.216;2023-12-04T12:35:26;101709.40;;;23.32;43.71
73205;BME280;61413;-27.702;153.216;2023-12-04T12:37:54;101712.46;;;23.36;43.74
73205;BME280;61413;-27.702;153.216;2023-12-04T12:40:22;101713.63;;;23.50;43.61
73205;BME280;61413;-27.702;153.216;2023-12-04T12:42:49;101712.96;;;23.83;43.66
73205;BME280;61413;-27.702;153.216;2023-12-04T12:45:16;101706.53;;;23.66;43.67
73205;BME280;61413;-27.702;153.216;2023-12-04T12:50:03;101693.99;;;23.63;43.69
73205;BME280;61413;-27.702;153.216;2023-12-04T12:52:30;101694.60;;;23.61;43.60
73205;BME280;61413;-27.702;153.216;2023-12-04T12:54:56;101696.80;;;23.53;43.44
73205;BME280;61413;-27.702;153.216;2023-12-04T12:57:23;101699.35;;;23.45;43.45
73205;BME280;61413;-27.702;153.216;2023-12-04T12:59:51;101696.87;;;23.01;43.34
73205;BME280;61413;-27.702;153.216;2023-12-04T13:04:38;101691.19;;;23.37;43.52
73205;BME280;61413;-27.702;153.216;2023-12-04T13:07:01;101689.33;;;23.42;43.38
73205;BME280;61413;-27.702;153.216;2023-12-04T13:09:29;101690.60;;;23.25;43.38
73205;BME280;61413;-27.702;153.216;2023-12-04T13:11:56;101691.86;;;23.49;43.35
73205;BME280;61413;-27.702;153.216;2023-12-04T13:14:23;101690.58;;;23.28;43.41
73205;BME280;61413;-27.702;153.216;2023-12-04T13:19:04;101693.98;;;23.17;43.64
73205;BME280;61413;-27.702;153.216;2023-12-04T13:21:32;101693.99;;;22.93;43.62